Time;durP1;ratioP1;P1;durP2;ratioP2;P2;SDS_P1;SDS_P2;PMS_P1;PMS_P2;Temp;Humidity;BMP_temperature;BMP_pressure;BME280_temperature;BME280_humidity;BME280_pressure;Samples;Min_cycle;Max_cycle;Signal;HPM_P1;HPM_P2
2023/06/03 00:01:57;;;;;;;3.22;1.70;;;17.10;61.30;;;;;;5055146;28;20619;-81
2023/06/03 00:04:23;;;;;;;3.88;1.70;;;17.10;61.60;;;;;;5038987;28;20036;-81
2023/06/03 00:06:48;;;;;;;3.07;1.90;;;17.00;61.50;;;;;;5033499;28;20036;-80
2023/06/03 00:09:14;;;;;;;4.68;1.98;;;17.00;61.80;;;;;;5057759;28;20073;-81
2023/06/03 00:11:41;;;;;;;5.28;1.90;;;16.90;62.00;;;;;;5007409;28;20536;-81
2023/06/03 00:14:08;;;;;;;3.73;1.87;;;16.90;62.10;;;;;;5037963;28;20219;-80
2023/06/03 00:16:33;;;;;;;3.35;1.70;;;16.90;62.20;;;;;;5035975;28;20500;-81
2023/06/03 00:18:59;;;;;;;2.88;1.73;;;16.90;62.40;;;;;;5026113;28;20020;-81
2023/06/03 00:21:27;;;;;;;3.85;1.98;;;16.80;62.50;;;;;;5033133;28;20041;-80
2023/06/03 00:23:53;;;;;;;2.60;1.90;;;16.80;62.40;;;;;;5048942;28;20064;-81
2023/06/03 00:26:21;;;;;;;3.35;1.83;;;16.80;62.60;;;;;;5020814;28;20581;-81
2023/06/03 00:28:48;;;;;;;4.38;2.00;;;16.80;62.70;;;;;;5060506;28;20040;-81
2023/06/03 00:31:14;;;;;;;4.07;1.80;;;16.70;62.70;;;;;;5057191;28;20043;-80
2023/06/03 00:33:40;;;;;;;3.17;2.00;;;16.70;63.00;;;;;;5038234;28;20390;-80
2023/06/03 00:36:06;;;;;;;3.63;1.80;;;16.70;63.10;;;;;;5035158;28;20360;-81
2023/06/03 00:38:31;;;;;;;3.60;1.98;;;16.60;63.40;;;;;;5066194;28;20028;-81
2023/06/03 00:40:57;;;;;;;5.00;2.10;;;16.60;63.60;;;;;;5045618;28;20120;-80
2023/06/03 00:43:23;;;;;;;4.85;2.03;;;16.60;63.70;;;;;;5021051;28;21651;-81
2023/06/03 00:45:49;;;;;;;4.22;1.98;;;16.60;63.80;;;;;;5035063;28;20028;-81
2023/06/03 00:48:15;;;;;;;4.13;2.00;;;16.50;64.00;;;;;;5063278;28;20020;-81
2023/06/03 00:50:41;;;;;;;5.82;2.28;;;16.50;63.90;;;;;;5027793;28;20094;-80
2023/06/03 00:53:08;;;;;;;3.30;2.13;;;16.50;64.10;;;;;;5043498;28;20317;-80
2023/06/03 00:55:34;;;;;;;3.73;1.90;;;16.50;64.40;;;;;;5017408;28;20481;-81
2023/06/03 00:58:00;;;;;;;3.50;1.98;;;16.40;64.40;;;;;;5018800;28;20284;-81
2023/06/03 01:00:26;;;;;;;3.78;2.10;;;16.40;64.50;;;;;;5079503;28;20036;-81
2023/06/03 01:02:52;;;;;;;2.53;1.90;;;16.40;64.60;;;;;;5010969;28;21589;-81
2023/06/03 01:05:18;;;;;;;3.30;2.30;;;16.30;64.50;;;;;;5061877;28;20046;-80
2023/06/03 01:08:09;;;;;;;3.30;2.08;;;16.40;64.80;;;;;;5012326;28;20119;-81
2023/06/03 01:10:44;;;;;;;4.00;2.10;;;16.30;66.30;;;;;;5078773;28;20194;-81
2023/06/03 01:13:32;;;;;;;4.13;2.15;;;16.30;65.00;;;;;;5017715;28;20056;-80
2023/06/03 01:16:04;;;;;;;3.03;2.03;;;16.30;67.20;;;;;;5044627;28;20246;-81
2023/06/03 01:18:33;;;;;;;3.88;2.00;;;16.20;65.30;;;;;;5034234;28;20432;-81
2023/06/03 01:21:00;;;;;;;2.63;2.05;;;16.20;65.30;;;;;;5043149;28;20336;-82
2023/06/03 01:23:33;;;;;;;3.72;2.10;;;16.20;65.30;;;;;;5041242;28;20047;-80
2023/06/03 01:26:00;;;;;;;3.00;2.00;;;16.10;65.30;;;;;;5044909;28;20013;-80
2023/06/03 01:28:28;;;;;;;2.80;1.83;;;16.10;65.60;;;;;;5023871;28;20032;-81
2023/06/03 01:30:55;;;;;;;3.10;2.10;;;16.00;65.40;;;;;;5044179;28;20138;-81
2023/06/03 01:33:23;;;;;;;3.05;1.90;;;16.10;65.60;;;;;;5038307;28;20036;-81
2023/06/03 01:35:51;;;;;;;3.38;2.05;;;16.00;65.80;;;;;;5041081;28;20231;-81
2023/06/03 01:38:18;;;;;;;5.10;2.15;;;16.00;65.60;;;;;;5069305;27;20042;-80
2023/06/03 01:40:45;;;;;;;3.13;2.13;;;16.00;65.80;;;;;;5049865;28;20040;-82
2023/06/03 01:43:11;;;;;;;4.43;2.25;;;15.90;65.80;;;;;;5022042;28;20128;-81
2023/06/03 01:45:37;;;;;;;3.30;2.17;;;15.90;65.90;;;;;;5050197;28;20096;-81
2023/06/03 01:48:04;;;;;;;2.85;2.13;;;15.90;65.90;;;;;;5080543;27;20048;-80
2023/06/03 01:50:30;;;;;;;3.67;2.15;;;15.80;66.00;;;;;;5045255;28;20029;-81
2023/06/03 01:52:56;;;;;;;3.93;2.27;;;15.80;66.10;;;;;;5042356;28;20267;-81
2023/06/03 01:55:21;;;;;;;4.85;2.53;;;15.80;66.20;;;;;;5042548;28;20123;-81
2023/06/03 01:57:47;;;;;;;2.97;2.03;;;15.80;66.30;;;;;;5023996;28;20020;-81
2023/06/03 02:00:15;;;;;;;3.75;2.30;;;15.70;66.40;;;;;;5060323;28;20017;-80
2023/06/03 02:02:40;;;;;;;3.88;2.20;;;15.70;66.50;;;;;;5046370;28;20024;-81
2023/06/03 02:05:07;;;;;;;4.43;2.35;;;15.60;66.70;;;;;;5039972;28;20638;-81
2023/06/03 02:07:32;;;;;;;4.65;2.50;;;15.70;66.80;;;;;;5030676;28;20637;-81
2023/06/03 02:09:59;;;;;;;3.97;2.07;;;15.60;66.90;;;;;;5066526;27;20028;-80
2023/06/03 02:12:25;;;;;;;3.95;2.42;;;15.60;67.10;;;;;;5057110;28;20054;-81
2023/06/03 02:14:56;;;;;;;3.20;2.13;;;15.60;67.00;;;;;;5028571;28;20529;-80
2023/06/03 02:17:24;;;;;;;4.20;2.50;;;15.60;67.20;;;;;;5069584;28;20486;-81
2023/06/03 02:19:54;;;;;;;3.53;2.28;;;15.60;67.40;;;;;;5039518;28;20694;-81
2023/06/03 02:22:20;;;;;;;3.97;2.45;;;15.60;67.30;;;;;;5052329;28;20484;-80
2023/06/03 02:24:46;;;;;;;3.55;2.30;;;15.60;67.50;;;;;;5033203;28;20032;-80
2023/06/03 02:27:24;;;;;;;4.25;2.30;;;15.50;67.50;;;;;;5083680;27;20130;-81
2023/06/03 02:29:51;;;;;;;3.27;2.20;;;15.50;68.40;;;;;;5023521;28;20036;-81
2023/06/03 02:32:19;;;;;;;4.18;2.40;;;15.50;67.40;;;;;;5048452;28;20036;-81
2023/06/03 02:34:45;;;;;;;4.47;2.50;;;15.50;67.40;;;;;;5022659;28;20253;-81
2023/06/03 02:37:12;;;;;;;3.25;2.35;;;15.50;67.40;;;;;;5079124;27;20032;-80
2023/06/03 02:39:38;;;;;;;3.67;2.33;;;15.40;67.30;;;;;;5028304;28;20039;-81
2023/06/03 02:42:04;;;;;;;4.30;2.53;;;15.40;67.50;;;;;;5039139;28;20068;-81
2023/06/03 02:44:30;;;;;;;3.92;2.33;;;15.40;67.60;;;;;;5064928;27;20013;-81
2023/06/03 02:46:55;;;;;;;3.67;2.33;;;15.30;67.70;;;;;;5035982;28;20114;-82
2023/06/03 02:49:21;;;;;;;3.33;2.30;;;15.20;67.70;;;;;;5048674;28;20024;-81
2023/06/03 02:51:47;;;;;;;3.63;2.30;;;15.30;67.80;;;;;;5032380;28;20189;-81
2023/06/03 02:54:12;;;;;;;3.27;2.13;;;15.20;67.80;;;;;;5027678;28;20020;-81
2023/06/03 02:56:38;;;;;;;4.07;2.37;;;15.20;67.80;;;;;;5031264;28;20028;-81
2023/06/03 02:59:05;;;;;;;3.90;2.17;;;15.20;67.90;;;;;;5049517;28;20040;-81
2023/06/03 03:01:31;;;;;;;3.35;2.28;;;15.10;67.80;;;;;;5020508;28;20032;-81
2023/06/03 03:03:57;;;;;;;4.63;2.47;;;15.10;68.00;;;;;;5065623;28;20098;-81
2023/06/03 03:06:24;;;;;;;4.47;2.20;;;15.00;68.00;;;;;;5026424;28;20041;-82
2023/06/03 03:08:51;;;;;;;3.00;2.25;;;15.00;68.10;;;;;;5043309;28;20596;-81
2023/06/03 03:11:17;;;;;;;3.60;2.33;;;15.00;68.20;;;;;;5050363;28;20031;-81
2023/06/03 03:13:44;;;;;;;3.50;2.17;;;14.90;68.20;;;;;;5019846;28;20036;-82
2023/06/03 03:16:11;;;;;;;3.37;2.20;;;14.90;68.30;;;;;;5024434;28;20032;-81
2023/06/03 03:18:38;;;;;;;4.05;2.28;;;14.90;68.50;;;;;;5043166;28;20040;-81
2023/06/03 03:21:05;;;;;;;2.95;2.17;;;14.90;68.50;;;;;;5040769;28;20609;-81
2023/06/03 03:23:32;;;;;;;4.25;2.53;;;14.90;68.60;;;;;;5049599;28;20017;-82
2023/06/03 03:26:00;;;;;;;4.15;2.38;;;14.80;68.70;;;;;;5080453;28;20036;-81
2023/06/03 03:28:26;;;;;;;3.50;2.37;;;14.80;68.80;;;;;;5033737;28;20378;-82
2023/06/03 03:30:53;;;;;;;4.40;2.50;;;14.80;68.80;;;;;;5025236;28;20088;-81
2023/06/03 03:33:20;;;;;;;4.10;2.38;;;14.80;68.80;;;;;;5049669;28;20033;-81
2023/06/03 03:35:48;;;;;;;5.60;2.65;;;14.80;68.80;;;;;;5046897;28;20349;-81
2023/06/03 03:38:14;;;;;;;4.82;2.50;;;14.70;68.90;;;;;;5045591;28;20036;-80
2023/06/03 03:40:40;;;;;;;4.43;2.40;;;14.70;68.90;;;;;;5046557;28;20184;-81
2023/06/03 03:43:14;;;;;;;4.70;2.25;;;14.70;69.00;;;;;;5040506;28;20081;-81
2023/06/03 03:45:41;;;;;;;4.53;2.58;;;14.70;69.90;;;;;;5077946;27;20427;-80
2023/06/03 03:48:13;;;;;;;3.20;2.30;;;14.70;69.00;;;;;;5022533;28;20032;-82
2023/06/03 03:50:50;;;;;;;4.18;2.60;;;14.60;69.60;;;;;;5045550;28;20245;-81
2023/06/03 03:53:36;;;;;;;5.00;2.47;;;14.60;70.60;;;;;;5042833;28;20032;-80
2023/06/03 03:56:02;;;;;;;4.82;2.42;;;14.60;71.20;;;;;;5027011;28;20859;-81
2023/06/03 03:58:37;;;;;;;3.70;2.40;;;14.60;69.40;;;;;;5041167;28;20150;-82
2023/06/03 04:01:17;;;;;;;3.75;2.25;;;14.60;69.90;;;;;;5048533;28;20371;-81
2023/06/03 04:03:45;;;;;;;4.00;2.40;;;14.60;70.60;;;;;;5024988;28;20037;-81
2023/06/03 04:06:13;;;;;;;3.10;2.10;;;14.60;69.80;;;;;;5038076;28;20541;-81
2023/06/03 04:08:46;;;;;;;3.88;2.30;;;14.60;69.70;;;;;;5035322;28;20278;-80
2023/06/03 04:11:23;;;;;;;4.60;2.23;;;14.60;70.70;;;;;;5041308;28;20120;-81
2023/06/03 04:13:50;;;;;;;3.30;2.47;;;14.50;70.20;;;;;;5053359;28;20064;-80
2023/06/03 04:16:42;;;;;;;4.72;2.45;;;14.60;70.00;;;;;;5053268;28;20501;-81
2023/06/03 04:19:32;;;;;;;3.97;2.50;;;14.50;71.40;;;;;;5026416;28;20040;-81
2023/06/03 04:21:59;;;;;;;3.60;2.40;;;14.50;70.40;;;;;;5048987;28;20059;-82
2023/06/03 04:24:26;;;;;;;3.30;2.07;;;14.60;70.10;;;;;;5021347;28;20493;-82
2023/06/03 04:26:52;;;;;;;3.40;2.30;;;14.60;70.10;;;;;;5063591;28;20036;-81
2023/06/03 04:29:19;;;;;;;4.82;2.42;;;14.60;70.20;;;;;;5054003;28;20056;-82
2023/06/03 04:31:45;;;;;;;3.40;2.35;;;14.60;70.30;;;;;;5031275;28;20044;-82
2023/06/03 04:34:10;;;;;;;4.18;2.38;;;14.70;70.20;;;;;;5005414;28;20086;-80
2023/06/03 04:36:36;;;;;;;4.17;2.50;;;14.60;70.30;;;;;;5048104;28;20309;-80
2023/06/03 04:39:05;;;;;;;5.40;2.70;;;14.70;70.40;;;;;;5052720;28;20021;-81
2023/06/03 04:41:32;;;;;;;6.20;2.53;;;14.70;70.10;;;;;;5021065;28;20504;-81
2023/06/03 04:44:01;;;;;;;6.10;2.90;;;14.70;70.20;;;;;;5033976;28;20043;-82
2023/06/03 04:46:31;;;;;;;4.72;2.70;;;14.80;70.80;;;;;;5030237;28;20651;-83
2023/06/03 04:48:58;;;;;;;4.40;2.53;;;14.80;70.60;;;;;;5020141;28;20610;-81
2023/06/03 04:51:27;;;;;;;5.93;2.40;;;14.90;70.60;;;;;;5045983;28;20044;-81
2023/06/03 04:53:57;;;;;;;4.32;2.50;;;14.90;70.70;;;;;;5077986;28;20025;-81
2023/06/03 04:56:24;;;;;;;4.05;2.40;;;15.00;70.90;;;;;;5020100;28;20041;-82
2023/06/03 04:58:55;;;;;;;4.43;2.53;;;15.00;70.40;;;;;;5056599;28;20229;-81
2023/06/03 05:01:25;;;;;;;5.88;2.72;;;15.10;70.90;;;;;;5020096;28;20021;-82
2023/06/03 05:03:54;;;;;;;4.20;2.47;;;15.10;70.80;;;;;;5048726;28;20033;-81
2023/06/03 05:06:20;;;;;;;4.65;2.55;;;15.20;70.90;;;;;;5046401;28;20132;-81
2023/06/03 05:08:50;;;;;;;4.63;2.53;;;15.20;70.60;;;;;;5051553;28;20040;-81
2023/06/03 05:11:20;;;;;;;4.38;2.63;;;15.20;70.80;;;;;;5078443;28;20343;-82
2023/06/03 05:13:46;;;;;;;5.00;2.83;;;15.30;70.90;;;;;;5071223;28;20117;-81
2023/06/03 05:16:12;;;;;;;4.07;2.47;;;15.30;70.60;;;;;;5054083;28;20078;-82
2023/06/03 05:18:41;;;;;;;4.38;2.65;;;15.30;70.60;;;;;;5041243;28;20264;-81
2023/06/03 05:21:08;;;;;;;4.28;2.47;;;15.40;70.60;;;;;;5029033;28;20037;-81
2023/06/03 05:23:33;;;;;;;5.47;2.58;;;15.40;70.40;;;;;;5054715;28;20296;-81
2023/06/03 05:25:59;;;;;;;3.90;2.30;;;15.50;70.50;;;;;;5041152;28;20359;-82
2023/06/03 05:28:25;;;;;;;5.15;2.72;;;15.50;70.50;;;;;;5057740;28;20066;-81
2023/06/03 05:30:51;;;;;;;4.90;2.40;;;15.50;70.70;;;;;;5047508;28;20028;-80
2023/06/03 05:33:24;;;;;;;4.15;2.65;;;15.60;70.70;;;;;;5060070;27;20024;-81
2023/06/03 05:35:49;;;;;;;5.53;2.42;;;15.60;71.20;;;;;;5018470;28;20123;-81
2023/06/03 05:38:15;;;;;;;4.13;2.53;;;15.60;70.60;;;;;;5049592;28;20107;-80
2023/06/03 05:40:40;;;;;;;4.07;2.30;;;15.70;70.70;;;;;;5057633;28;20397;-82
2023/06/03 05:43:06;;;;;;;4.77;2.47;;;15.70;70.50;;;;;;5041489;28;20029;-80
2023/06/03 05:45:32;;;;;;;4.43;2.45;;;15.80;70.50;;;;;;5044976;28;20033;-81
2023/06/03 05:47:57;;;;;;;5.97;2.40;;;15.90;70.70;;;;;;5033937;28;20341;-82
2023/06/03 05:50:23;;;;;;;3.35;2.25;;;15.90;70.50;;;;;;5059381;28;20106;-81
2023/06/03 05:52:49;;;;;;;4.80;2.73;;;16.00;70.50;;;;;;5016725;28;20414;-81
2023/06/03 05:55:14;;;;;;;5.28;2.72;;;16.10;70.50;;;;;;5057205;28;20028;-84
2023/06/03 05:57:40;;;;;;;4.67;2.40;;;16.10;70.40;;;;;;5045154;28;21381;-83
2023/06/03 06:00:07;;;;;;;4.95;2.55;;;16.20;71.00;;;;;;5032296;28;20032;-81
2023/06/03 06:02:33;;;;;;;5.00;2.30;;;16.20;70.40;;;;;;5026567;28;20028;-82
2023/06/03 06:04:59;;;;;;;4.67;2.33;;;16.30;70.40;;;;;;5038751;28;20347;-80
2023/06/03 06:07:24;;;;;;;3.75;2.20;;;16.40;70.30;;;;;;5028738;28;20060;-81
2023/06/03 06:09:50;;;;;;;4.33;2.07;;;16.50;70.40;;;;;;5037312;28;20127;-83
2023/06/03 06:12:16;;;;;;;3.58;2.30;;;16.50;70.40;;;;;;5056519;28;20033;-81
2023/06/03 06:14:42;;;;;;;4.93;2.20;;;16.60;70.30;;;;;;5044012;28;20052;-84
2023/06/03 06:17:10;;;;;;;3.73;2.20;;;16.70;70.20;;;;;;5052843;28;20033;-82
2023/06/03 06:19:36;;;;;;;3.85;2.17;;;16.80;70.10;;;;;;5030595;28;20064;-81
2023/06/03 06:22:03;;;;;;;3.25;2.10;;;16.90;70.20;;;;;;5015138;28;21251;-82
2023/06/03 06:24:29;;;;;;;4.28;2.33;;;16.90;70.00;;;;;;5054756;28;20032;-82
2023/06/03 06:26:55;;;;;;;4.33;2.27;;;17.00;69.90;;;;;;5048213;28;20028;-79
2023/06/03 06:29:20;;;;;;;4.82;2.33;;;17.10;69.80;;;;;;5039017;28;20028;-81
2023/06/03 06:31:46;;;;;;;5.30;2.77;;;17.20;69.70;;;;;;5046394;28;20264;-83
2023/06/03 06:34:17;;;;;;;4.20;2.20;;;17.30;69.70;;;;;;5027902;28;20283;-80
2023/06/03 06:36:49;;;;;;;3.15;2.22;;;17.40;69.80;;;;;;5040309;28;20033;-81
2023/06/03 06:39:33;;;;;;;4.82;2.25;;;17.40;69.70;;;;;;5037539;28;20087;-81
2023/06/03 06:42:23;;;;;;;3.33;2.10;;;17.50;70.00;;;;;;5047424;28;20028;-81
2023/06/03 06:44:51;;;;;;;4.03;2.07;;;17.60;69.60;;;;;;5021487;28;20028;-81
2023/06/03 06:47:21;;;;;;;5.10;2.00;;;17.70;69.40;;;;;;5047802;28;20312;-80
2023/06/03 06:49:51;;;;;;;3.58;2.03;;;17.80;69.40;;;;;;5051183;28;20375;-82
2023/06/03 06:52:19;;;;;;;2.80;2.00;;;17.80;69.00;;;;;;5024969;28;20245;-81
2023/06/03 06:54:45;;;;;;;3.28;2.00;;;17.90;68.80;;;;;;5022025;28;20513;-81
2023/06/03 06:57:18;;;;;;;4.80;2.33;;;18.00;68.80;;;;;;5077940;28;20553;-81
2023/06/03 06:59:43;;;;;;;4.13;2.30;;;18.10;68.60;;;;;;5047193;28;20120;-81
2023/06/03 07:02:09;;;;;;;4.60;2.20;;;18.20;68.40;;;;;;5023136;28;20045;-80
2023/06/03 07:04:35;;;;;;;3.13;1.90;;;18.30;68.30;;;;;;5041663;28;20108;-82
2023/06/03 07:07:00;;;;;;;3.17;1.85;;;18.40;68.20;;;;;;5041352;28;20082;-82
2023/06/03 07:09:26;;;;;;;2.93;1.97;;;18.40;68.00;;;;;;5024429;28;20108;-81
2023/06/03 07:11:52;;;;;;;3.70;1.90;;;18.50;68.10;;;;;;5039037;28;20032;-80
2023/06/03 07:14:17;;;;;;;3.43;1.90;;;18.60;68.10;;;;;;5073518;28;20025;-81
2023/06/03 07:16:43;;;;;;;3.88;1.70;;;18.70;68.00;;;;;;5034309;28;20301;-80
2023/06/03 07:19:09;;;;;;;5.10;1.80;;;18.80;67.90;;;;;;5043541;28;20025;-84
2023/06/03 07:21:35;;;;;;;2.75;1.83;;;18.90;67.70;;;;;;5029096;28;20167;-81
2023/06/03 07:24:01;;;;;;;4.00;2.20;;;19.00;67.60;;;;;;5040682;28;20029;-82
2023/06/03 07:26:28;;;;;;;3.83;2.00;;;19.10;67.40;;;;;;5036083;28;20060;-84
2023/06/03 07:28:57;;;;;;;3.77;1.90;;;19.20;67.20;;;;;;5057409;28;20535;-81
2023/06/03 07:31:24;;;;;;;3.88;2.00;;;19.30;66.90;;;;;;5046690;28;20117;-81
2023/06/03 07:33:54;;;;;;;4.13;1.90;;;19.40;66.70;;;;;;5072148;28;20612;-82
2023/06/03 07:36:21;;;;;;;3.85;1.98;;;19.40;66.50;;;;;;5064613;28;20024;-81
2023/06/03 07:38:47;;;;;;;3.55;1.70;;;19.50;66.40;;;;;;5038847;28;20279;-82
2023/06/03 07:41:23;;;;;;;3.20;1.93;;;19.60;66.30;;;;;;5026909;28;20053;-80
2023/06/03 07:43:48;;;;;;;3.70;1.63;;;19.70;66.10;;;;;;5062186;28;20182;-79
2023/06/03 07:46:15;;;;;;;3.13;1.63;;;19.80;65.90;;;;;;5048865;28;20027;-82
2023/06/03 07:48:40;;;;;;;2.90;1.70;;;19.90;65.70;;;;;;5019059;28;20584;-81
2023/06/03 07:51:07;;;;;;;2.50;1.45;;;20.00;65.40;;;;;;5049501;28;20040;-81
2023/06/03 07:53:36;;;;;;;2.42;1.63;;;20.10;65.30;;;;;;5045833;28;20040;-81
2023/06/03 07:56:10;;;;;;;2.93;1.40;;;20.20;65.00;;;;;;5022437;28;20035;-81
2023/06/03 07:58:37;;;;;;;3.97;1.60;;;20.40;64.50;;;;;;5041496;28;20146;-83
2023/06/03 08:01:04;;;;;;;2.83;1.50;;;20.50;66.10;;;;;;5070264;28;20016;-79
2023/06/03 08:03:31;;;;;;;3.30;1.50;;;20.80;66.80;;;;;;5040749;28;20156;-81
2023/06/03 08:06:00;;;;;;;3.17;1.60;;;21.20;67.40;;;;;;5050928;28;20080;-81
2023/06/03 08:08:32;;;;;;;2.93;1.50;;;21.60;67.20;;;;;;5068083;27;20025;-82
2023/06/03 08:10:57;;;;;;;2.67;1.45;;;22.10;67.20;;;;;;5027863;28;20033;-81
2023/06/03 08:13:23;;;;;;;2.35;1.40;;;22.60;67.00;;;;;;5043213;28;20025;-82
2023/06/03 08:15:49;;;;;;;2.20;1.40;;;23.10;66.40;;;;;;5052792;28;20069;-79
2023/06/03 08:18:47;;;;;;;2.97;1.65;;;23.50;65.60;;;;;;5067037;27;20036;-82
2023/06/03 08:21:13;;;;;;;2.65;1.48;;;24.00;62.60;;;;;;5041728;28;20032;-84
2023/06/03 08:23:40;;;;;;;1.87;1.27;;;24.60;63.50;;;;;;5049066;28;20270;-83
2023/06/03 08:26:08;;;;;;;2.35;1.50;;;24.90;61.80;;;;;;5035671;28;20062;-84
2023/06/03 08:28:34;;;;;;;2.40;1.45;;;25.30;61.80;;;;;;5051629;28;20558;-80
2023/06/03 08:30:59;;;;;;;1.88;1.30;;;25.60;61.10;;;;;;5068538;28;20545;-82
2023/06/03 08:33:25;;;;;;;2.10;1.30;;;25.80;59.80;;;;;;5071882;27;20024;-84
2023/06/03 08:35:51;;;;;;;1.48;1.38;;;26.20;58.50;;;;;;5053417;28;20048;-80
2023/06/03 08:38:17;;;;;;;1.90;1.30;;;26.40;57.70;;;;;;5045949;28;20081;-81
2023/06/03 08:40:47;;;;;;;3.03;1.30;;;26.70;57.80;;;;;;5061039;28;20059;-84
2023/06/03 08:43:14;;;;;;;2.88;1.45;;;26.90;56.30;;;;;;5002987;28;20039;-80
2023/06/03 08:46:04;;;;;;;2.92;1.20;;;27.20;56.20;;;;;;5053143;28;20090;-81
2023/06/03 08:49:03;;;;;;;2.38;1.30;;;27.40;54.90;;;;;;5048301;28;20348;-83
2023/06/03 08:51:38;;;;;;;2.20;1.40;;;27.80;54.00;;;;;;5027007;28;20485;-83
2023/06/03 08:54:13;;;;;;;2.70;1.50;;;28.10;55.20;;;;;;5033490;28;20028;-81
2023/06/03 08:56:47;;;;;;;1.58;1.23;;;28.50;53.80;;;;;;5069122;28;20032;-82
2023/06/03 08:59:19;;;;;;;2.42;1.30;;;28.70;52.60;;;;;;5020636;28;20107;-81
2023/06/03 09:01:47;;;;;;;1.60;1.20;;;28.80;50.90;;;;;;5048647;28;20672;-83
2023/06/03 09:04:14;;;;;;;2.20;1.10;;;28.90;51.50;;;;;;5048574;28;20024;-83
2023/06/03 09:06:44;;;;;;;1.98;1.00;;;29.10;51.20;;;;;;5035121;28;20894;-83
2023/06/03 09:09:11;;;;;;;1.95;1.13;;;29.20;50.40;;;;;;5051011;28;20020;-83
2023/06/03 09:11:38;;;;;;;2.00;1.30;;;29.30;50.30;;;;;;5052543;28;20667;-81
2023/06/03 09:14:04;;;;;;;2.70;1.40;;;29.40;48.60;;;;;;5055359;28;20035;-82
2023/06/03 09:16:35;;;;;;;1.90;1.10;;;29.40;48.20;;;;;;5044837;28;20830;-82
2023/06/03 09:19:01;;;;;;;2.00;1.20;;;29.50;47.30;;;;;;5033403;28;20066;-79
2023/06/03 09:21:27;;;;;;;1.90;1.23;;;29.50;47.40;;;;;;5051498;28;20089;-80
2023/06/03 09:23:53;;;;;;;1.73;1.20;;;29.60;47.00;;;;;;5039036;28;20218;-80
2023/06/03 09:26:19;;;;;;;2.22;1.40;;;29.70;46.80;;;;;;5049929;28;20445;-81
2023/06/03 09:28:45;;;;;;;1.50;1.10;;;29.80;46.00;;;;;;5045321;28;20032;-79
2023/06/03 09:31:11;;;;;;;1.63;1.08;;;29.80;46.40;;;;;;5016927;28;20035;-84
2023/06/03 09:33:37;;;;;;;2.83;1.03;;;29.90;46.20;;;;;;5042344;28;20024;-81
2023/06/03 09:36:12;;;;;;;1.83;1.20;;;30.10;45.50;;;;;;5042571;28;20032;-82
2023/06/03 09:38:49;;;;;;;2.25;1.30;;;30.10;43.70;;;;;;5015093;28;20056;-85
2023/06/03 09:41:17;;;;;;;1.58;1.02;;;30.20;44.70;;;;;;5065546;28;20032;-81
2023/06/03 09:43:56;;;;;;;1.98;1.20;;;30.30;44.80;;;;;;5045101;28;20021;-80
2023/06/03 09:46:23;;;;;;;1.73;1.10;;;30.40;42.70;;;;;;5036294;28;20032;-82
2023/06/03 09:48:49;;;;;;;1.25;1.08;;;30.60;43.40;;;;;;5035123;28;20514;-82
2023/06/03 09:51:15;;;;;;;1.73;1.30;;;30.60;43.80;;;;;;5053293;28;20043;-81
2023/06/03 09:53:40;;;;;;;2.07;1.40;;;30.70;43.40;;;;;;5052296;28;20300;-83
2023/06/03 09:56:26;;;;;;;1.67;1.08;;;30.80;42.70;;;;;;5059903;27;20025;-84
2023/06/03 09:59:12;;;;;;;1.42;1.00;;;30.90;40.70;;;;;;5048714;28;20106;-84
2023/06/03 10:01:38;;;;;;;2.03;1.20;;;30.90;42.10;;;;;;5028298;28;20408;-80
2023/06/03 10:04:03;;;;;;;1.58;1.13;;;31.10;42.50;;;;;;5057119;28;20024;-82
2023/06/03 10:06:29;;;;;;;1.83;1.20;;;31.20;42.30;;;;;;5052226;28;20111;-82
2023/06/03 10:08:55;;;;;;;2.23;1.27;;;31.40;42.10;;;;;;5038233;28;20028;-84
2023/06/03 10:11:23;;;;;;;1.40;1.05;;;31.60;41.80;;;;;;5049698;28;20051;-82
2023/06/03 10:14:06;;;;;;;1.70;1.10;;;31.70;40.90;;;;;;5033874;28;20082;-83
2023/06/03 10:16:32;;;;;;;2.10;1.20;;;31.80;39.20;;;;;;5039028;28;20118;-83
2023/06/03 10:18:58;;;;;;;1.37;1.10;;;31.80;38.70;;;;;;5042879;28;20033;-80
2023/06/03 10:21:28;;;;;;;1.70;1.20;;;31.80;38.50;;;;;;5056398;28;20041;-84
2023/06/03 10:23:57;;;;;;;1.77;1.17;;;31.80;38.40;;;;;;5070859;27;20222;-82
2023/06/03 10:26:25;;;;;;;1.60;1.10;;;31.80;38.30;;;;;;5026890;28;20099;-83
2023/06/03 10:28:52;;;;;;;1.38;1.10;;;31.80;38.10;;;;;;5021514;28;20265;-82
2023/06/03 10:31:21;;;;;;;1.60;1.17;;;31.90;38.70;;;;;;5051425;28;20805;-80
2023/06/03 10:33:48;;;;;;;2.20;1.30;;;32.00;37.50;;;;;;5016485;28;20305;-80
2023/06/03 10:36:16;;;;;;;1.15;1.02;;;32.00;37.80;;;;;;5056265;28;20139;-78
2023/06/03 10:38:41;;;;;;;1.73;1.30;;;32.20;37.70;;;;;;5023123;28;20614;-80
2023/06/03 10:41:09;;;;;;;2.58;1.27;;;32.30;37.30;;;;;;5029509;28;20079;-82
2023/06/03 10:43:37;;;;;;;2.10;1.00;;;32.30;37.30;;;;;;5042073;28;20037;-84
2023/06/03 10:46:04;;;;;;;2.30;1.30;;;32.50;36.90;;;;;;5036946;28;20032;-85
2023/06/03 10:48:31;;;;;;;3.00;1.30;;;32.60;37.10;;;;;;5023020;28;20028;-76
2023/06/03 10:51:00;;;;;;;3.05;1.27;;;32.70;36.80;;;;;;5029536;28;20208;-82
2023/06/03 10:53:41;;;;;;;2.58;1.20;;;32.90;36.20;;;;;;5040070;28;20103;-82
2023/06/03 10:56:08;;;;;;;1.40;1.30;;;33.00;34.90;;;;;;5045705;28;20218;-83
2023/06/03 10:58:34;;;;;;;2.53;1.40;;;33.10;35.70;;;;;;5045906;28;20545;-83
2023/06/03 11:01:00;;;;;;;1.73;1.00;;;33.20;35.20;;;;;;5038647;28;20758;-81
2023/06/03 11:03:53;;;;;;;1.35;1.15;;;33.10;34.40;;;;;;5006947;28;20028;-82
2023/06/03 11:06:19;;;;;;;1.67;1.30;;;33.10;34.00;;;;;;5046133;28;20454;-80
2023/06/03 11:09:03;;;;;;;1.20;1.10;;;33.10;34.40;;;;;;5040282;28;20049;-81
2023/06/03 11:11:41;;;;;;;1.10;1.00;;;33.10;33.10;;;;;;5044323;28;20029;-81
2023/06/03 11:14:08;;;;;;;1.38;1.27;;;33.10;34.10;;;;;;5041846;28;20036;-80
2023/06/03 11:16:58;;;;;;;2.38;1.30;;;33.10;34.00;;;;;;5038507;28;20194;-81
2023/06/03 11:19:37;;;;;;;1.20;1.07;;;33.10;33.00;;;;;;5005750;28;20040;-83
2023/06/03 11:22:10;;;;;;;1.45;1.20;;;33.10;32.90;;;;;;5050589;28;20040;-82
2023/06/03 11:24:39;;;;;;;1.52;1.20;;;33.10;33.00;;;;;;5021518;28;20383;-82
2023/06/03 11:27:11;;;;;;;2.17;1.08;;;33.10;32.30;;;;;;5043878;28;20028;-80
2023/06/03 11:29:51;;;;;;;2.65;1.48;;;33.00;32.80;;;;;;5029194;28;20378;-82
2023/06/03 11:32:24;;;;;;;1.90;1.10;;;33.00;32.50;;;;;;5029832;28;20485;-84
2023/06/03 11:35:11;;;;;;;1.42;1.30;;;33.00;32.80;;;;;;5056324;27;20043;-81
2023/06/03 11:37:40;;;;;;;1.90;1.23;;;33.10;33.10;;;;;;5034674;28;20043;-80
2023/06/03 11:40:14;;;;;;;1.88;1.20;;;33.20;32.60;;;;;;5042435;28;20059;-82
2023/06/03 11:42:46;;;;;;;1.23;1.10;;;33.20;32.20;;;;;;5038990;28;20492;-83
2023/06/03 11:45:21;;;;;;;2.80;1.13;;;33.20;31.60;;;;;;5047197;28;20043;-82
2023/06/03 11:47:55;;;;;;;1.58;1.00;;;33.20;31.40;;;;;;5039403;28;20033;-81
2023/06/03 11:50:23;;;;;;;1.20;1.10;;;33.20;32.70;;;;;;5050559;27;20057;-81
2023/06/03 11:52:49;;;;;;;2.80;1.25;;;33.30;32.30;;;;;;5083179;27;20253;-82
2023/06/03 11:55:29;;;;;;;1.17;1.05;;;33.40;32.10;;;;;;5050080;28;20052;-82
2023/06/03 11:58:22;;;;;;;1.30;0.90;;;33.50;31.00;;;;;;5050894;28;20777;-82
2023/06/03 12:00:48;;;;;;;2.13;1.00;;;33.50;31.80;;;;;;5047018;28;20429;-83
2023/06/03 12:03:14;;;;;;;1.65;1.13;;;33.60;31.90;;;;;;5020210;28;20059;-81
2023/06/03 12:05:54;;;;;;;1.38;1.10;;;33.60;31.40;;;;;;5019376;28;20772;-79
2023/06/03 12:08:19;;;;;;;1.87;1.30;;;33.60;30.10;;;;;;5044036;28;20353;-82
2023/06/03 12:10:45;;;;;;;1.00;0.90;;;33.60;31.00;;;;;;5044556;28;20619;-81
2023/06/03 12:13:11;;;;;;;3.77;1.30;;;33.60;30.30;;;;;;5040028;28;20457;-82
2023/06/03 12:15:47;;;;;;;1.77;1.20;;;33.60;30.80;;;;;;5040844;28;20152;-82
2023/06/03 12:18:13;;;;;;;1.30;1.10;;;33.60;29.90;;;;;;5041419;28;20025;-79
2023/06/03 12:20:39;;;;;;;1.60;1.00;;;33.50;30.40;;;;;;5023726;28;20375;-81
2023/06/03 12:23:05;;;;;;;1.98;1.20;;;33.60;30.50;;;;;;5064152;28;20040;-81
2023/06/03 12:25:34;;;;;;;1.85;1.20;;;33.70;30.00;;;;;;5065645;28;20222;-80
2023/06/03 12:28:23;;;;;;;1.20;1.00;;;33.70;29.30;;;;;;5038377;28;20043;-83
2023/06/03 12:30:49;;;;;;;1.77;1.10;;;33.70;29.30;;;;;;5042723;28;20024;-80
2023/06/03 12:33:16;;;;;;;1.20;1.10;;;33.60;29.70;;;;;;5042945;28;20379;-83
2023/06/03 12:35:53;;;;;;;1.20;1.10;;;33.60;29.90;;;;;;5034551;28;20128;-82
2023/06/03 12:38:18;;;;;;;2.05;1.30;;;33.60;29.30;;;;;;5019220;28;20025;-83
2023/06/03 12:40:45;;;;;;;1.27;1.17;;;33.60;29.40;;;;;;5078678;28;20716;-80
2023/06/03 12:43:21;;;;;;;2.13;1.20;;;33.60;29.60;;;;;;5033659;28;20028;-83
2023/06/03 12:45:47;;;;;;;1.40;1.17;;;33.60;29.00;;;;;;5081301;28;20028;-80
2023/06/03 12:48:33;;;;;;;1.23;1.10;;;33.60;29.50;;;;;;5017072;28;20020;-82
2023/06/03 12:51:02;;;;;;;1.73;1.10;;;33.60;29.70;;;;;;5037566;28;20297;-81
2023/06/03 12:53:27;;;;;;;1.92;1.17;;;33.60;29.30;;;;;;5018887;28;20024;-80
2023/06/03 12:55:53;;;;;;;2.90;1.20;;;33.60;29.00;;;;;;5048856;28;20035;-78
2023/06/03 12:58:19;;;;;;;2.33;1.20;;;33.50;28.90;;;;;;5040900;28;20491;-79